Terminal Aerodrome Forecast
Issued by NWS

Home | Current Version | Previous Version | Text Only | Print | Product List | Glossary On
Versions: 1 2 3 4 5 6 7 8 9 10 11 12 13 14 15 16 17 18 19 20 21
505
FTUS43 KLSX 112330
TAFUIN
TAF
KUIN 112330Z 1200/1224 11004KT P6SM OVC080
     FM120200 12004KT 5SM -SN OVC050
     FM120400 14004KT 2SM -SN OVC025
     FM120900 VRB03KT P6SM OVC015
     FM121300 25006KT P6SM OVC020
     FM121700 31014KT P6SM BKN035=

USA.gov is the U.S. government's official web portal to all federal, state and local government web resources and services.